OEJN

King Abdulaziz International Airport

Jeddah, Saudi Arabia
TAF OEJN 202300Z 2100/2206 06006KT 6000 FEW040 SCT100 BECMG 2106/2108 28015KT
Issued Valid From Valid To
Apr-20 @ 23:00 UTC
(5 hours ago)
Apr-21 @ 00:00 UTC
(4 hours ago)
Apr-22 @ 06:00 UTC
(-1 days ago)
Apr-21 @ 00:00 to Apr-21 @ 06:00
TAF OEJN 202300Z 2100/2206 06006KT 6000 FEW040 SCT100
Wind Visibility Clouds
60° at 6 knots 6,003 meters
  • Few at 4,000' AGL
  • Scattered at 10,000' AGL
Becoming Apr-21 @ 06:00 to Apr-22 @ 06:00
BECMG 2106/2108 28015KT
Wind Visibility Clouds
280° at 15 knots 6,003 meters
  • Few at 4,000' AGL
  • Scattered at 10,000' AGL
TAF OEJN 202300Z 2100/2206 06006KT 6000 FEW040 SCT100 BECMG 2106/2108 28015KT
Issued Apr-20 @ 23:00 UTC
(5 hours ago)
Valid From Apr-21 @ 00:00 UTC
(4 hours ago)
Valid To Apr-22 @ 06:00 UTC
(-1 days ago)
Apr-21 @ 00:00 - Apr-21 @ 06:00
Wind Visibility
60° at 6 knots 6,003 meters
Clouds
  • Few at 4,000' AGL
  • Scattered at 10,000' AGL
Becoming Apr-21 @ 06:00 - Apr-22 @ 06:00
Wind Visibility
280° at 15 knots 6,003 meters
Clouds
  • Few at 4,000' AGL
  • Scattered at 10,000' AGL